createdAt,value
2022-09-01T00:01:29.279Z,97911.75
2022-09-01T00:03:59.810Z,97907.06
2022-09-01T00:06:27.785Z,97917.16
2022-09-01T00:08:58.391Z,97915.38
2022-09-01T00:11:27.021Z,97907.69
2022-09-01T00:13:55.126Z,97909.63
2022-09-01T00:16:23.626Z,97915.38
2022-09-01T00:18:52.529Z,97914.13
2022-09-01T00:21:21.466Z,97916.75
2022-09-01T00:23:49.572Z,97913.88
2022-09-01T00:26:18.850Z,97916.75
2022-09-01T00:28:46.694Z,97916.38
2022-09-01T00:31:15.275Z,97917.59
2022-09-01T00:33:43.134Z,97920.47
2022-09-01T00:36:11.064Z,97915.06
2022-09-01T00:38:40.213Z,97912.03
2022-09-01T00:41:08.286Z,97912.84
2022-09-01T00:43:39.860Z,97917.94
2022-09-01T00:46:09.228Z,97908.59
2022-09-01T00:48:38.641Z,97907.50
2022-09-01T00:51:06.859Z,97911.66
2022-09-01T00:53:34.716Z,97908.75
2022-09-01T00:56:02.792Z,97909.41
2022-09-01T00:58:31.518Z,97901.09
2022-09-01T01:01:00.716Z,97906.34
2022-09-01T01:03:30.298Z,97912.91
2022-09-01T01:05:59.277Z,97911.22
2022-09-01T01:08:34.056Z,97913.75
2022-09-01T01:11:02.428Z,97900.00
2022-09-01T01:13:32.166Z,97898.47
2022-09-01T01:16:02.020Z,97898.00
2022-09-01T01:18:29.989Z,97895.72
2022-09-01T01:21:19.975Z,97898.81
2022-09-01T01:23:51.437Z,97898.31
2022-09-01T01:26:20.618Z,97888.63
2022-09-01T01:28:48.817Z,97895.78
2022-09-01T01:31:18.496Z,97897.28
2022-09-01T01:33:50.971Z,97902.53
2022-09-01T01:36:21.628Z,97899.66
2022-09-01T01:38:50.361Z,97903.38
2022-09-01T01:41:19.707Z,97896.31
2022-09-01T01:43:51.126Z,97906.06
2022-09-01T01:46:19.350Z,97906.13
2022-09-01T01:48:52.430Z,97898.81
2022-09-01T01:51:21.302Z,97910.63
2022-09-01T01:53:52.717Z,97908.47
2022-09-01T01:56:20.726Z,97912.53
2022-09-01T01:58:50.097Z,97905.72
2022-09-01T02:01:20.209Z,97913.31
2022-09-01T02:03:48.388Z,97913.50
2022-09-01T02:06:16.284Z,97917.59
2022-09-01T02:08:44.197Z,97904.34
2022-09-01T02:11:13.267Z,97911.69
2022-09-01T02:13:41.183Z,97907.13
2022-09-01T02:16:13.023Z,97920.09
2022-09-01T02:18:42.827Z,97909.41
2022-09-01T02:21:17.646Z,97911.94
2022-09-01T02:23:57.588Z,97911.88
2022-09-01T02:26:30.155Z,97907.59
2022-09-01T02:28:58.230Z,97908.56
2022-09-01T02:31:28.187Z,97908.22
2022-09-01T02:33:56.570Z,97901.84
2022-09-01T02:36:25.498Z,97902.97
2022-09-01T02:38:56.391Z,97904.81
2022-09-01T02:41:25.371Z,97903.66
2022-09-01T02:43:54.194Z,97902.25
2022-09-01T02:46:24.343Z,97903.25
2022-09-01T02:48:54.656Z,97906.16
2022-09-01T02:51:25.737Z,97904.09
2022-09-01T02:53:53.771Z,97902.53
2022-09-01T02:56:25.114Z,97899.34
2022-09-01T02:58:53.587Z,97896.06
2022-09-01T03:01:24.837Z,97903.69
2022-09-01T03:03:55.256Z,97905.84
2022-09-01T03:06:24.246Z,97908.44
2022-09-01T03:08:52.758Z,97903.63
2022-09-01T03:11:20.634Z,97908.53
2022-09-01T03:13:48.454Z,97903.69
2022-09-01T03:16:16.331Z,97903.94
2022-09-01T03:18:44.238Z,97904.16
2022-09-01T03:21:16.192Z,97898.88
2022-09-01T03:23:44.160Z,97906.63
2022-09-01T03:26:11.981Z,97908.53
2022-09-01T03:28:40.515Z,97903.50
2022-09-01T03:31:09.004Z,97904.94
2022-09-01T03:33:37.311Z,97912.03
2022-09-01T03:36:05.513Z,97904.88
2022-09-01T03:38:48.404Z,97903.16
2022-09-01T03:41:17.852Z,97899.78
2022-09-01T03:43:47.197Z,97898.69
2022-09-01T03:46:20.248Z,97894.22
2022-09-01T03:48:49.172Z,97895.00
2022-09-01T03:51:17.388Z,97892.78
2022-09-01T03:53:47.422Z,97894.41
2022-09-01T03:56:15.328Z,97891.31
2022-09-01T03:58:45.527Z,97888.47
2022-09-01T04:01:13.797Z,97887.59
2022-09-01T04:03:42.630Z,97892.84
2022-09-01T04:06:10.839Z,97887.81
2022-09-01T04:08:39.457Z,97890.38
2022-09-01T04:11:16.490Z,97885.47
2022-09-01T04:13:44.533Z,97891.94
2022-09-01T04:16:39.898Z,97887.47
2022-09-01T04:19:16.095Z,97889.75
2022-09-01T04:21:45.039Z,97893.16
2022-09-01T04:24:14.826Z,97891.78
2022-09-01T04:26:46.088Z,97895.50
2022-09-01T04:29:13.916Z,97893.72
2022-09-01T04:31:42.635Z,97895.06
2022-09-01T04:34:13.995Z,97891.53
2022-09-01T04:36:43.587Z,97899.94
2022-09-01T04:39:13.374Z,97893.84
2022-09-01T04:41:46.272Z,97895.69
2022-09-01T04:44:19.338Z,97891.06
2022-09-01T04:46:47.968Z,97894.53
2022-09-01T04:49:22.598Z,97896.91
2022-09-01T04:51:53.983Z,97901.66
2022-09-01T04:54:22.802Z,97896.69
2022-09-01T04:56:52.586Z,97896.47
2022-09-01T04:59:24.393Z,97894.47
2022-09-01T05:01:55.657Z,97887.75
2022-09-01T05:04:27.483Z,97886.88
2022-09-01T05:07:00.892Z,97894.00
2022-09-01T05:09:28.960Z,97887.75
2022-09-01T05:11:57.757Z,97889.09
2022-09-01T05:14:27.120Z,97890.03
2022-09-01T05:16:58.400Z,97894.63
2022-09-01T05:19:29.095Z,97901.56
2022-09-01T05:22:02.159Z,97900.03
2022-09-01T05:24:41.812Z,97901.25
2022-09-01T05:27:17.011Z,97897.00
2022-09-01T05:29:47.035Z,97900.41
2022-09-01T05:32:15.153Z,97899.50
2022-09-01T05:34:45.229Z,97901.25
2022-09-01T05:37:16.159Z,97898.03
2022-09-01T05:39:44.362Z,97901.94
2022-09-01T05:42:12.289Z,97902.78
2022-09-01T05:44:42.486Z,97907.66
2022-09-01T05:47:20.284Z,97910.59
2022-09-01T05:49:49.925Z,97903.59
2022-09-01T05:52:17.985Z,97910.84
2022-09-01T05:54:49.854Z,97912.97
2022-09-01T05:57:33.851Z,97910.41
2022-09-01T06:00:02.786Z,97909.81
2022-09-01T06:02:33.898Z,97902.16
2022-09-01T06:05:01.854Z,97914.03
2022-09-01T06:07:29.699Z,97905.94
2022-09-01T06:09:57.663Z,97904.63
2022-09-01T06:12:28.800Z,97908.06
2022-09-01T06:14:59.501Z,97910.78
2022-09-01T06:17:29.601Z,97906.97
2022-09-01T06:19:58.895Z,97906.53
2022-09-01T06:22:28.041Z,97904.69
2022-09-01T06:25:01.941Z,97906.38
2022-09-01T06:27:31.091Z,97911.72
2022-09-01T06:29:59.058Z,97905.88
2022-09-01T06:32:27.254Z,97909.91
2022-09-01T06:34:58.268Z,97909.63
2022-09-01T06:37:28.930Z,97913.72
2022-09-01T06:39:57.680Z,97910.88
2022-09-01T06:42:26.180Z,97909.88
2022-09-01T06:44:54.036Z,97916.72
2022-09-01T06:47:21.840Z,97920.81
2022-09-01T06:49:51.841Z,97916.63
2022-09-01T06:52:23.687Z,97921.19
2022-09-01T06:54:55.012Z,97922.56
2022-09-01T07:00:19.411Z,97918.25
2022-09-01T07:02:50.402Z,97914.91
2022-09-01T07:08:09.347Z,97915.75
2022-09-01T07:13:34.859Z,97919.00
2022-09-01T07:18:59.809Z,97915.41
2022-09-01T07:21:42.026Z,97924.06
2022-09-01T07:24:20.377Z,97924.06
2022-09-01T07:26:50.787Z,97926.94
2022-09-01T07:29:21.899Z,97918.28
2022-09-01T07:34:39.650Z,97920.28
2022-09-01T07:37:17.276Z,97919.97
2022-09-01T07:39:56.133Z,97919.94
2022-09-01T07:42:56.789Z,97924.19
2022-09-01T07:45:32.889Z,97907.81
2022-09-01T07:48:07.610Z,97912.19
2022-09-01T07:54:21.752Z,97913.47
2022-09-01T07:56:50.427Z,97907.50
2022-09-01T07:59:21.306Z,97909.50
2022-09-01T08:01:49.735Z,97906.50
2022-09-01T08:04:18.592Z,97910.75
2022-09-01T08:06:46.996Z,97918.50
2022-09-01T08:09:27.323Z,97912.88
2022-09-01T08:12:02.998Z,97918.84
2022-09-01T08:14:34.259Z,97916.03
2022-09-01T08:17:16.798Z,97917.53
2022-09-01T08:19:47.091Z,97924.59
2022-09-01T08:22:17.918Z,97926.34
2022-09-01T08:24:48.657Z,97925.84
2022-09-01T08:27:16.729Z,97921.75
2022-09-01T08:29:45.948Z,97925.75
2022-09-01T08:32:13.814Z,97922.00
2022-09-01T08:34:44.048Z,97920.66
2022-09-01T08:37:12.210Z,97913.41
2022-09-01T08:39:40.061Z,97920.91
2022-09-01T08:42:10.923Z,97923.63
2022-09-01T08:44:41.614Z,97916.81
2022-09-01T08:47:13.007Z,97924.88
2022-09-01T08:49:46.183Z,97914.72
2022-09-01T08:52:19.289Z,97918.41
2022-09-01T08:54:49.931Z,97909.97
2022-09-01T08:57:20.372Z,97921.16
2022-09-01T08:59:48.155Z,97915.78
2022-09-01T09:02:36.809Z,97910.25
2022-09-01T09:05:22.938Z,97913.47
2022-09-01T09:08:18.978Z,97905.88
2022-09-01T09:10:51.003Z,97898.91
2022-09-01T09:13:23.141Z,97901.34
2022-09-01T09:16:06.922Z,97896.59
2022-09-01T09:18:40.612Z,97898.34
2022-09-01T09:21:10.532Z,97897.03
2022-09-01T09:23:41.017Z,97905.13
2022-09-01T09:26:08.984Z,97889.56
2022-09-01T09:28:38.605Z,97888.16
2022-09-01T09:31:32.051Z,97887.88
2022-09-01T09:34:01.425Z,97877.69
2022-09-01T09:36:35.869Z,97884.28
2022-09-01T09:39:12.467Z,97879.50
2022-09-01T09:41:41.200Z,97881.00
2022-09-01T09:44:20.473Z,97888.47
2022-09-01T09:46:48.966Z,97884.00
2022-09-01T09:49:21.689Z,97876.81
2022-09-01T09:52:16.473Z,97875.91
2022-09-01T09:55:00.059Z,97873.56
2022-09-01T09:57:28.916Z,97867.44
2022-09-01T10:00:00.816Z,97867.25
2022-09-01T10:02:31.196Z,97863.44
2022-09-01T10:05:01.686Z,97860.56
2022-09-01T10:07:33.022Z,97867.09
2022-09-01T10:10:01.857Z,97854.34
2022-09-01T10:12:29.769Z,97847.31
2022-09-01T10:15:00.566Z,97846.09
2022-09-01T10:17:36.099Z,97856.38
2022-09-01T10:20:08.184Z,97847.97
2022-09-01T10:22:39.766Z,97852.22
2022-09-01T10:25:10.460Z,97854.66
2022-09-01T10:27:39.448Z,97842.09
2022-09-01T10:30:12.492Z,97844.59
2022-09-01T10:32:50.768Z,97839.50
2022-09-01T10:35:25.878Z,97847.72
2022-09-01T10:37:53.803Z,97834.38
2022-09-01T10:40:36.191Z,97844.66
2022-09-01T10:43:41.069Z,97852.56
2022-09-01T10:46:51.084Z,97838.59
2022-09-01T10:50:02.292Z,97833.09
2022-09-01T10:53:05.081Z,97826.34
2022-09-01T10:55:38.891Z,97830.25
2022-09-01T11:01:10.822Z,97833.63
2022-09-01T11:04:02.826Z,97829.59
2022-09-01T11:09:44.712Z,97818.22
2022-09-01T11:12:48.577Z,97826.66
2022-09-01T11:15:39.273Z,97818.06
2022-09-01T11:18:11.983Z,97826.31
2022-09-01T11:20:40.546Z,97821.91
2022-09-01T11:23:14.954Z,97817.50
2022-09-01T11:25:46.574Z,97819.38
2022-09-01T11:28:39.447Z,97826.34
2022-09-01T11:31:28.726Z,97818.75
2022-09-01T11:34:14.826Z,97828.66
2022-09-01T11:36:58.955Z,97814.97
2022-09-01T11:39:35.268Z,97820.25
2022-09-01T11:42:14.821Z,97814.09
2022-09-01T11:44:51.791Z,97816.63
2022-09-01T11:47:21.439Z,97819.63
2022-09-01T11:49:54.205Z,97823.97
2022-09-01T11:52:23.165Z,97813.88
2022-09-01T11:54:50.976Z,97817.47
2022-09-01T11:57:23.611Z,97803.34
2022-09-01T11:59:51.544Z,97806.72
2022-09-01T12:02:21.241Z,97805.03
2022-09-01T12:04:50.615Z,97802.53
2022-09-01T12:07:30.224Z,97805.06
2022-09-01T12:09:58.068Z,97801.72
2022-09-01T12:12:33.578Z,97797.06
2022-09-01T12:15:06.107Z,97794.34
2022-09-01T12:17:34.602Z,97790.34
2022-09-01T12:20:23.381Z,97781.88
2022-09-01T12:22:54.549Z,97779.34
2022-09-01T12:25:23.903Z,97780.16
2022-09-01T12:27:55.616Z,97781.28
2022-09-01T12:30:26.063Z,97780.03
2022-09-01T12:33:22.944Z,97784.88
2022-09-01T12:35:42.256Z,97775.16
2022-09-01T12:38:30.697Z,97773.25
2022-09-01T12:40:59.041Z,97764.84
2022-09-01T12:43:34.332Z,97776.66
2022-09-01T12:46:04.853Z,97776.44
2022-09-01T12:48:34.018Z,97772.22
2022-09-01T12:51:02.797Z,97767.63
2022-09-01T12:53:32.509Z,97772.41
2022-09-01T12:56:06.866Z,97758.94
2022-09-01T12:58:36.060Z,97763.41
2022-09-01T13:01:05.748Z,97763.59
2022-09-01T13:03:36.849Z,97764.81
2022-09-01T13:06:04.887Z,97768.00
2022-09-01T13:08:34.097Z,97756.41
2022-09-01T13:11:04.130Z,97755.16
2022-09-01T13:13:32.251Z,97759.38
2022-09-01T13:16:03.508Z,97763.16
2022-09-01T13:18:31.988Z,97758.13
2022-09-01T13:21:00.009Z,97754.34
2022-09-01T13:23:27.967Z,97746.53
2022-09-01T13:25:55.858Z,97749.91
2022-09-01T13:36:48.156Z,97734.00
2022-09-01T13:39:19.247Z,97722.63
2022-09-01T13:41:48.722Z,97724.59
2022-09-01T13:44:17.379Z,97726.31
2022-09-01T13:47:28.275Z,97723.78
2022-09-01T13:49:44.558Z,97731.78
2022-09-01T13:52:22.793Z,97717.84
2022-09-01T13:54:50.943Z,97717.63
2022-09-01T13:57:19.040Z,97721.47
2022-09-01T13:59:46.886Z,97717.69
2022-09-01T14:02:14.684Z,97716.28
2022-09-01T14:05:23.085Z,97709.94
2022-09-01T14:08:20.579Z,97707.03
2022-09-01T14:10:51.038Z,97708.88
2022-09-01T14:13:19.423Z,97710.75
2022-09-01T14:15:48.377Z,97702.72
2022-09-01T14:18:17.340Z,97715.31
2022-09-01T14:20:47.596Z,97704.59
2022-09-01T14:23:16.121Z,97707.81
2022-09-01T14:25:44.724Z,97697.34
2022-09-01T14:28:13.264Z,97700.94
2022-09-01T14:30:42.282Z,97696.09
2022-09-01T14:33:14.190Z,97701.69
2022-09-01T14:35:45.996Z,97696.78
2022-09-01T14:38:15.657Z,97700.72
2022-09-01T14:40:43.817Z,97707.41
2022-09-01T14:43:14.564Z,97699.34
2022-09-01T14:45:44.597Z,97696.97
2022-09-01T14:48:12.598Z,97692.22
2022-09-01T14:50:41.337Z,97691.63
2022-09-01T14:53:09.272Z,97686.16
2022-09-01T14:55:38.513Z,97690.16
2022-09-01T14:58:06.366Z,97687.41
2022-09-01T15:00:35.944Z,97682.84
2022-09-01T15:03:03.988Z,97686.66
2022-09-01T15:05:39.529Z,97683.25
2022-09-01T15:08:08.352Z,97681.41
2022-09-01T15:10:36.596Z,97683.41
2022-09-01T15:13:05.915Z,97677.19
2022-09-01T15:15:34.017Z,97670.22
2022-09-01T15:18:02.013Z,97673.81
2022-09-01T15:20:51.301Z,97674.00
2022-09-01T15:23:22.701Z,97678.06
2022-09-01T15:25:57.259Z,97678.28
2022-09-01T15:28:26.932Z,97666.53
2022-09-01T15:30:57.010Z,97669.06
2022-09-01T15:33:24.812Z,97667.34
2022-09-01T15:35:53.817Z,97665.06
2022-09-01T15:38:25.019Z,97668.63
2022-09-01T15:40:58.500Z,97666.25
2022-09-01T15:43:28.535Z,97668.19
2022-09-01T15:45:58.252Z,97666.13
2022-09-01T15:48:26.675Z,97662.50
2022-09-01T15:50:55.097Z,97661.91
2022-09-01T15:53:27.797Z,97668.19
2022-09-01T15:55:57.925Z,97668.03
2022-09-01T15:58:30.445Z,97658.94
2022-09-01T16:01:08.880Z,97657.31
2022-09-01T16:03:36.834Z,97666.13
2022-09-01T16:06:07.272Z,97659.38
2022-09-01T16:08:35.698Z,97664.63
2022-09-01T16:11:09.694Z,97652.84
2022-09-01T16:13:37.739Z,97661.28
2022-09-01T16:16:14.816Z,97650.75
2022-09-01T16:18:45.989Z,97652.03
2022-09-01T16:21:15.860Z,97648.44
2022-09-01T16:23:45.271Z,97633.50
2022-09-01T16:26:13.104Z,97641.50
2022-09-01T16:28:41.115Z,97651.22
2022-09-01T16:31:14.829Z,97647.44
2022-09-01T16:33:48.336Z,97646.34
2022-09-01T16:36:25.477Z,97645.53
2022-09-01T16:38:55.173Z,97649.50
2022-09-01T16:41:39.766Z,97639.22
2022-09-01T16:44:13.869Z,97636.69
2022-09-01T16:46:45.722Z,97634.59
2022-09-01T16:49:18.110Z,97635.03
2022-09-01T16:51:49.567Z,97635.03
2022-09-01T16:54:20.866Z,97637.75
2022-09-01T16:56:52.586Z,97629.97
2022-09-01T16:59:26.129Z,97632.28
2022-09-01T17:02:01.053Z,97639.00
2022-09-01T17:04:32.800Z,97630.78
2022-09-01T17:07:05.873Z,97627.63
2022-09-01T17:09:36.570Z,97632.25
2022-09-01T17:12:22.718Z,97629.31
2022-09-01T17:14:55.216Z,97627.81
2022-09-01T17:17:34.228Z,97630.75
2022-09-01T17:20:04.352Z,97628.25
2022-09-01T17:22:32.559Z,97623.81
2022-09-01T17:27:34.007Z,97626.53
2022-09-01T17:30:02.305Z,97630.91
2022-09-01T17:32:48.349Z,97631.31
2022-09-01T17:35:22.740Z,97629.84
2022-09-01T17:37:58.266Z,97622.53
2022-09-01T17:40:29.005Z,97632.31
2022-09-01T17:43:01.136Z,97627.84
2022-09-01T17:45:31.659Z,97620.75
2022-09-01T17:48:09.083Z,97630.81
2022-09-01T17:53:26.240Z,97625.91
2022-09-01T17:55:55.939Z,97622.13
2022-09-01T17:58:31.491Z,97619.97
2022-09-01T18:01:01.861Z,97618.06
2022-09-01T18:03:45.779Z,97625.78
2022-09-01T18:06:17.120Z,97625.53
2022-09-01T18:08:45.565Z,97616.28
2022-09-01T18:11:15.424Z,97626.25
2022-09-01T18:13:53.276Z,97621.16
2022-09-01T18:16:27.005Z,97629.56
2022-09-01T18:18:58.501Z,97631.66
2022-09-01T18:21:27.642Z,97639.22
2022-09-01T18:23:58.915Z,97637.00
2022-09-01T18:26:33.028Z,97641.34
2022-09-01T18:29:01.026Z,97643.59
2022-09-01T18:31:52.350Z,97641.06
2022-09-01T18:34:25.768Z,97650.94
2022-09-01T18:36:55.244Z,97644.66
2022-09-01T18:39:25.836Z,97649.03
2022-09-01T18:42:00.954Z,97652.84
2022-09-01T18:44:37.264Z,97649.09
2022-09-01T18:47:06.954Z,97653.44
2022-09-01T18:49:42.514Z,97659.63
2022-09-01T18:52:18.041Z,97651.22
2022-09-01T18:54:48.929Z,97660.81
2022-09-01T18:57:18.749Z,97665.59
2022-09-01T18:59:54.659Z,97652.75
2022-09-01T19:02:36.249Z,97662.94
2022-09-01T19:05:09.420Z,97659.13
2022-09-01T19:07:41.889Z,97665.22
2022-09-01T19:10:12.944Z,97664.09
2022-09-01T19:12:49.389Z,97664.53
2022-09-01T19:15:20.634Z,97676.16
2022-09-01T19:18:14.129Z,97675.72
2022-09-01T19:20:47.389Z,97670.09
2022-09-01T19:23:17.769Z,97673.66
2022-09-01T19:25:45.826Z,97679.75
2022-09-01T19:28:20.497Z,97689.03
2022-09-01T19:30:51.758Z,97689.38
2022-09-01T19:33:22.487Z,97687.69
2022-09-01T19:35:53.226Z,97693.88
2022-09-01T19:38:27.429Z,97695.31
2022-09-01T19:40:57.217Z,97692.63
2022-09-01T19:43:25.468Z,97692.72
2022-09-01T19:45:59.461Z,97695.91
2022-09-01T19:48:29.218Z,97699.72
2022-09-01T19:51:00.339Z,97695.47
2022-09-01T19:53:34.670Z,97691.28
2022-09-01T19:56:05.272Z,97698.34
2022-09-01T19:58:36.737Z,97700.13
2022-09-01T20:01:05.717Z,97695.81
2022-09-01T20:03:35.524Z,97707.03
2022-09-01T20:06:06.157Z,97700.56
2022-09-01T20:08:35.786Z,97704.88
2022-09-01T20:11:11.359Z,97699.56
2022-09-01T20:13:49.231Z,97710.06
2022-09-01T20:16:24.384Z,97704.34
2022-09-01T20:18:54.800Z,97709.16
2022-09-01T20:21:23.993Z,97706.75
2022-09-01T20:23:54.483Z,97701.84
2022-09-01T20:26:23.424Z,97703.22
2022-09-01T20:28:55.732Z,97699.88
2022-09-01T20:31:28.036Z,97707.00
2022-09-01T20:33:58.444Z,97700.78
2022-09-01T20:36:30.728Z,97703.34
2022-09-01T20:39:19.429Z,97697.91
2022-09-01T20:41:50.542Z,97703.72
2022-09-01T20:44:25.057Z,97696.44
2022-09-01T20:46:53.971Z,97701.63
2022-09-01T20:49:25.333Z,97701.88
2022-09-01T20:51:56.651Z,97699.53
2022-09-01T20:54:29.483Z,97697.50
2022-09-01T20:57:01.110Z,97691.91
2022-09-01T20:59:31.981Z,97698.41
2022-09-01T21:02:02.774Z,97697.25
2022-09-01T21:04:37.652Z,97707.56
2022-09-01T21:07:10.530Z,97698.94
2022-09-01T21:09:41.918Z,97705.03
2022-09-01T21:12:11.131Z,97699.47
2022-09-01T21:14:46.622Z,97707.44
2022-09-01T21:17:18.027Z,97705.78
2022-09-01T21:19:53.369Z,97706.44
2022-09-01T21:22:22.888Z,97706.28
2022-09-01T21:24:50.902Z,97699.84
2022-09-01T21:27:20.067Z,97702.25
2022-09-01T21:29:55.446Z,97695.63
2022-09-01T21:32:23.616Z,97701.22
2022-09-01T21:34:53.078Z,97706.66
2022-09-01T21:37:23.784Z,97693.13
2022-09-01T21:39:54.063Z,97701.91
2022-09-01T21:42:22.480Z,97698.38
2022-09-01T21:44:50.345Z,97703.81
2022-09-01T21:47:22.198Z,97692.75
2022-09-01T21:49:50.057Z,97694.44
2022-09-01T21:52:17.943Z,97698.38
2022-09-01T21:54:47.289Z,97698.59
2022-09-01T21:57:15.434Z,97692.66
2022-09-01T21:59:43.325Z,97693.63
2022-09-01T22:02:11.240Z,97685.38
2022-09-01T22:04:39.662Z,97691.63
2022-09-01T22:07:09.172Z,97690.97
2022-09-01T22:09:37.015Z,97686.06
2022-09-01T22:12:06.857Z,97683.91
2022-09-01T22:14:34.708Z,97687.44
2022-09-01T22:17:04.466Z,97681.50
2022-09-01T22:19:33.989Z,97675.06
2022-09-01T22:22:02.203Z,97674.72
2022-09-01T22:24:30.109Z,97681.84
2022-09-01T22:26:57.922Z,97673.72
2022-09-01T22:29:27.177Z,97678.47
2022-09-01T22:31:54.990Z,97667.81
2022-09-01T22:34:23.082Z,97683.19
2022-09-01T22:36:50.972Z,97671.06
2022-09-01T22:39:19.239Z,97670.34
2022-09-01T22:41:50.141Z,97671.06
2022-09-01T22:44:17.992Z,97675.44
2022-09-01T22:46:47.210Z,97671.91
2022-09-01T22:49:15.329Z,97676.13
2022-09-01T22:51:43.511Z,97685.09
2022-09-01T22:54:11.965Z,97676.66
2022-09-01T22:56:40.213Z,97670.03
2022-09-01T22:59:09.711Z,97674.81
2022-09-01T23:01:42.627Z,97678.34
2022-09-01T23:04:12.955Z,97665.00
2022-09-01T23:06:41.977Z,97661.75
2022-09-01T23:09:09.787Z,97658.91
2022-09-01T23:11:37.763Z,97658.34
2022-09-01T23:14:05.897Z,97656.50
2022-09-01T23:16:34.013Z,97662.59
2022-09-01T23:19:01.946Z,97650.38
2022-09-01T23:21:32.577Z,97656.03
2022-09-01T23:24:00.601Z,97657.34
2022-09-01T23:26:28.511Z,97652.75
2022-09-01T23:28:57.038Z,97654.16
2022-09-01T23:31:26.478Z,97648.38
2022-09-01T23:33:54.452Z,97650.59
2022-09-01T23:36:25.206Z,97654.81
2022-09-01T23:38:54.736Z,97655.50
2022-09-01T23:41:23.744Z,97657.03
2022-09-01T23:43:51.827Z,97649.91
2022-09-01T23:46:20.439Z,97646.53
2022-09-01T23:48:48.361Z,97647.38
2022-09-01T23:51:18.065Z,97647.88
2022-09-01T23:53:46.720Z,97647.22
2022-09-01T23:56:16.781Z,97648.56
2022-09-01T23:58:44.971Z,97646.38
